Pride Of Bruges — PGJW — position and weather

sailwx.info

Track history (hours):
 
Tides and Currents Weather Stations Pressure Air Temp Water Temp Dewpoint Dewpoint Depression Visibility Wind Speed Wind Dir Waves Ship Positions

Pride Of Bruges

Operator: P&O Ferries

Last reported at 2018-Jul-22 07:00 UTC. Time now 2018-Jul-22 07:05 UTC.
Position N 53°44' W 000°17'.

Length 180 m; draft 5.6 m.

Type: Ship. MMSI: 244387000.

Date/timePositionNaut miles runAvg speedWind from/ knotsBaromVisibWave heightAir tempDewpointWater temp
2018-Jul-22 07:00N 53°44' W 000°17'4 8.5
2018-Jul-22 06:31N 53°41' W 000°13'610.8
2018-Jul-22 06:00N 53°37' W 000°06'713.1
2018-Jul-22 05:27N 53°34' E 000°05'3413.6
2018-Jul-22 02:58N 53°21' E 000°57'613.6
2018-Jul-22 02:30N 53°16' E 001°05'714.3
2018-Jul-22 02:00N 53°11' E 001°12'714.1
2018-Jul-22 01:30N 53°05' E 001°20'714.2
2018-Jul-22 01:00N 53°00' E 001°28'714.6
2018-Jul-22 00:30N 52°55' E 001°37'815.0
2018-Jul-22 00:00N 52°50' E 001°45'815.2
2018-Jul-21 23:30N 52°44' E 001°53'815.9
2018-Jul-21 23:00N 52°37' E 002°01'815.9
2018-Jul-21 22:30N 52°30' E 002°07'815.8
2018-Jul-21 22:00N 52°23' E 002°13'815.9
2018-Jul-21 21:30N 52°16' E 002°18'815.8
2018-Jul-21 21:00N 52°09' E 002°24'815.4
2018-Jul-21 20:30N 52°02' E 002°29'815.2
2018-Jul-21 20:00N 51°55' E 002°35'1414.4
2018-Jul-21 19:00N 51°42' E 002°42'714.2
2018-Jul-21 18:30N 51°35' E 002°47'714.2
2018-Jul-21 18:01N 51°30' E 002°54'713.5
2018-Jul-21 17:30N 51°25' E 003°02'612.3
2018-Jul-21 17:01N 51°22' E 003°11'2 4.2
2018-Jul-21 16:30N 51°20' E 003°11'0 0.0
2018-Jul-21 15:59N 51°20' E 003°11'0 0.0
2018-Jul-21 15:26N 51°20' E 003°11'0 0.0
2018-Jul-21 14:57N 51°20' E 003°11'0 0.0
2018-Jul-21 14:27N 51°20' E 003°11'0 0.0
2018-Jul-21 13:26N 51°20' E 003°11'0 0.0
2018-Jul-21 12:59N 51°20' E 003°11'0 0.0
2018-Jul-21 12:29N 51°20' E 003°11'0 0.0
2018-Jul-21 11:56N 51°20' E 003°11'0 0.0
2018-Jul-21 11:28N 51°20' E 003°11'0 0.0
2018-Jul-21 10:58N 51°20' E 003°11'0 0.0
2018-Jul-21 10:28N 51°20' E 003°11'0 0.0
2018-Jul-21 09:28N 51°20' E 003°11'0 0.0
2018-Jul-21 09:00N 51°20' E 003°11'0 0.0
2018-Jul-21 08:24N 51°20' E 003°11'0 0.0
2018-Jul-21 08:00N 51°20' E 003°11'0 0.0
2018-Jul-21 07:30N 51°20' E 003°11'0 0.4
2018-Jul-21 07:00N 51°20' E 003°11'510.8
2018-Jul-21 06:31N 51°24' E 003°05'815.0
2018-Jul-21 06:00N 51°27' E 002°54'713.4
2018-Jul-21 05:30N 51°32' E 002°47'713.7
2018-Jul-21 05:00N 51°37' E 002°40'714.2
2018-Jul-21 04:31N 51°44' E 002°38'714.4
2018-Jul-21 04:01N 51°51' E 002°34'714.6
2018-Jul-21 03:30N 51°58' E 002°29'815.3
2018-Jul-21 03:01N 52°05' E 002°24'816.4
2018-Jul-21 02:30N 52°12' E 002°19'816.6
2018-Jul-21 02:00N 52°20' E 002°14'817.1
2018-Jul-21 01:30N 52°28' E 002°09'917.3
2018-Jul-21 01:00N 52°36' E 002°02'817.0
2018-Jul-21 00:30N 52°43' E 001°55'816.6
2018-Jul-21 00:00N 52°48' E 001°44'816.2
2018-Jul-20 23:30N 52°53' E 001°34'816.1
2018-Jul-20 23:00N 52°58' E 001°23'816.2
2018-Jul-20 22:30N 53°00' E 001°10'915.9
2018-Jul-20 21:58N 53°06' E 000°59'3216.1
2018-Jul-20 20:01N 53°31' E 000°27'116.6
2018-Jul-20 19:58N 53°31' E 000°26'715.4
2018-Jul-20 19:29N 53°33' E 000°14'714.6
2018-Jul-20 19:00N 53°35' E 000°03'814.8
2018-Jul-20 18:30N 53°38' W 000°09'612.0
2018-Jul-20 18:01N 53°43' W 000°14'2 3.9
2018-Jul-20 17:29N 53°44' W 000°16'0 0.2
2018-Jul-20 17:00N 53°45' W 000°16'0 0.0
2018-Jul-20 16:30N 53°45' W 000°16'0 0.0
2018-Jul-20 15:59N 53°45' W 000°16'0 0.0
2018-Jul-20 15:29N 53°45' W 000°16'0 0.0
2018-Jul-20 14:59N 53°45' W 000°16'0 0.0
2018-Jul-20 14:29N 53°45' W 000°16'0 0.0
2018-Jul-20 13:59N 53°45' W 000°16'0 0.0
2018-Jul-20 13:28N 53°45' W 000°16'0 0.0
2018-Jul-20 12:58N 53°45' W 000°16'0 0.0
2018-Jul-20 12:28N 53°45' W 000°16'0 0.0
2018-Jul-20 11:58N 53°45' W 000°16'0 0.0
2018-Jul-20 11:30N 53°45' W 000°16'0 0.0
2018-Jul-20 11:00N 53°45' W 000°16'0 0.0
2018-Jul-20 10:30N 53°45' W 000°16'0 0.0
2018-Jul-20 10:00N 53°45' W 000°16'0 0.0
2018-Jul-20 09:30N 53°45' W 000°16'0 0.0
2018-Jul-20 08:59N 53°45' W 000°16'0 0.0
2018-Jul-20 08:29N 53°45' W 000°16'0 0.0
2018-Jul-20 07:59N 53°45' W 000°16'0 0.0
2018-Jul-20 07:30N 53°45' W 000°16'0 0.2
2018-Jul-20 07:00N 53°44' W 000°16'0 0.6
2018-Jul-20 06:30N 53°44' W 000°16'611.6
2018-Jul-20 06:01N 53°39' W 000°12'713.0
2018-Jul-20 05:30N 53°36' W 000°02'714.8
2018-Jul-20 05:00N 53°33' E 000°09'714.7
2018-Jul-20 04:30N 53°33' E 000°22'814.8
2018-Jul-20 03:59N 53°30' E 000°34'915.0
2018-Jul-20 03:25N 53°25' E 000°45'615.7
2018-Jul-20 03:00N 53°22' E 000°54'715.1
2018-Jul-20 02:31N 53°17' E 001°04'815.1
2018-Jul-20 02:00N 53°11' E 001°12'714.9
2018-Jul-20 01:30N 53°06' E 001°21'714.5
2018-Jul-20 01:01N 53°00' E 001°29'714.1
2018-Jul-20 00:31N 52°56' E 001°38'713.6
2018-Jul-20 00:00N 52°51' E 001°45'714.0
2018-Jul-19 23:30N 52°45' E 001°52'714.2
2018-Jul-19 23:00N 52°39' E 001°59'815.1
2018-Jul-19 22:30N 52°33' E 002°06'816.0
2018-Jul-19 22:01N 52°26' E 002°12'816.4
2018-Jul-19 21:31N 52°18' E 002°17'816.9
2018-Jul-19 21:01N 52°10' E 002°22'917.1
2018-Jul-19 20:31N 52°02' E 002°27'817.0
2018-Jul-19 20:01N 51°55' E 002°32'917.2
2018-Jul-19 19:30N 51°47' E 002°38'817.0
2018-Jul-19 19:00N 51°39' E 002°44'816.7
2018-Jul-19 18:31N 51°32' E 002°51'816.5
2018-Jul-19 18:01N 51°25' E 002°58'714.4
2018-Jul-19 17:30N 51°23' E 003°09'3 6.2
2018-Jul-19 17:00N 51°20' E 003°11'0 0.0
2018-Jul-19 16:27N 51°20' E 003°11'0 0.0
2018-Jul-19 15:59N 51°20' E 003°11'0 0.0
2018-Jul-19 15:29N 51°20' E 003°11'0 0.0
2018-Jul-19 14:59N 51°20' E 003°11'0 0.0
2018-Jul-19 13:56N 51°20' E 003°11'0 0.0
2018-Jul-19 13:29N 51°20' E 003°11'0 0.0
2018-Jul-19 12:58N 51°20' E 003°11'0 0.0
2018-Jul-19 12:28N 51°20' E 003°11'0 0.0
2018-Jul-19 11:58N 51°20' E 003°11'0 0.0
2018-Jul-19 11:25N 51°20' E 003°11'0 0.0
2018-Jul-19 11:00N 51°20' E 003°11'0 0.0
2018-Jul-19 10:27N 51°20' E 003°11'0 0.0
2018-Jul-19 10:00N 51°20' E 003°11'0 0.0
2018-Jul-19 09:24N 51°20' E 003°11'0 0.0
2018-Jul-19 09:00N 51°20' E 003°11'0 0.0
2018-Jul-19 08:28N 51°20' E 003°11'0 0.0
2018-Jul-19 07:59N 51°20' E 003°11'0 0.0
2018-Jul-19 07:29N 51°20' E 003°11'0 0.0
2018-Jul-19 06:56N 51°20' E 003°11'1 1.3
2018-Jul-19 06:30N 51°21' E 003°12'713.2
2018-Jul-19 06:00N 51°24' E 003°03'815.3
2018-Jul-19 05:31N 51°28' E 002°53'714.6
2018-Jul-19 05:00N 51°33' E 002°44'713.7
2018-Jul-19 04:31N 51°39' E 002°39'714.8
2018-Jul-19 04:01N 51°46' E 002°35'815.0
2018-Jul-19 03:30N 51°53' E 002°30'815.2
2018-Jul-19 03:00N 52°00' E 002°26'815.5
2018-Jul-19 02:30N 52°07' E 002°21'816.1
2018-Jul-19 02:01N 52°15' E 002°16'817.0
2018-Jul-19 01:31N 52°23' E 002°11'917.2
2018-Jul-19 01:01N 52°31' E 002°05'918.0
2018-Jul-19 00:30N 52°39' E 001°58'1019.1
2018-Jul-19 00:00N 52°46' E 001°49'1019.5
2018-Jul-18 23:30N 52°53' E 001°37'1019.4
2018-Jul-18 23:01N 52°59' E 001°24'918.9
2018-Jul-18 22:30N 53°02' E 001°09'918.0
2018-Jul-18 22:00N 53°07' E 000°57'918.2
2018-Jul-18 21:30N 53°13' E 000°46'918.0
2018-Jul-18 21:00N 53°20' E 000°35'917.9
2018-Jul-18 20:30N 53°27' E 000°26'1615.6
2018-Jul-18 19:27N 53°35' E 000°02'613.6
2018-Jul-18 19:00N 53°37' W 000°07'510.5
2018-Jul-18 18:30N 53°41' W 000°13'4 7.7
2018-Jul-18 18:00N 53°44' W 000°16'0 0.0
2018-Jul-18 17:31N 53°44' W 000°16'0 0.2
2018-Jul-18 17:00N 53°45' W 000°16'0 0.0
2018-Jul-18 16:30N 53°45' W 000°16'0 0.0
2018-Jul-18 16:00N 53°45' W 000°16'0 0.0
2018-Jul-18 15:29N 53°45' W 000°16'0 0.0
2018-Jul-18 14:59N 53°45' W 000°16'0 0.0
2018-Jul-18 14:29N 53°45' W 000°16'0 0.0
2018-Jul-18 13:29N 53°45' W 000°16'0 0.0
2018-Jul-18 12:58N 53°45' W 000°16'0 0.0
2018-Jul-18 12:30N 53°45' W 000°16'0 0.0
2018-Jul-18 11:58N 53°45' W 000°16'0 0.0
2018-Jul-18 11:28N 53°45' W 000°16'0 0.0
2018-Jul-18 10:30N 53°45' W 000°16'0 0.0
2018-Jul-18 10:00N 53°45' W 000°16'0 0.0
2018-Jul-18 09:30N 53°45' W 000°16'0 0.0
2018-Jul-18 09:00N 53°45' W 000°16'0 0.0
2018-Jul-18 08:29N 53°45' W 000°16'0 0.0
2018-Jul-18 07:59N 53°45' W 000°16'0 0.0
2018-Jul-18 07:29N 53°45' W 000°16'0 0.2
2018-Jul-18 06:59N 53°44' W 000°16'0 0.5
2018-Jul-18 06:30N 53°44' W 000°17'611.9
2018-Jul-18 06:00N 53°39' W 000°12'713.4
2018-Jul-18 05:30N 53°36' W 000°02'815.8
2018-Jul-18 05:00N 53°33' E 000°10'714.1
2018-Jul-18 04:30N 53°33' E 000°22'2314.1
2018-Jul-18 02:53N 53°21' E 000°55'614.8
2018-Jul-18 02:30N 53°18' E 001°03'815.4
2018-Jul-18 02:00N 53°13' E 001°12'815.4
2018-Jul-18 01:30N 53°07' E 001°21'714.6
2018-Jul-18 01:00N 53°02' E 001°29'1414.0
2018-Jul-18 00:01N 52°51' E 001°43'412.9
2018-Jul-17 23:42N 52°48' E 001°48'312.5
2018-Jul-17 23:29N 52°46' E 001°50'812.6
2018-Jul-17 22:49N 52°39' E 001°59'413.0
2018-Jul-17 22:28N 52°35' E 002°03'613.5
2018-Jul-17 22:00N 52°30' E 002°08'714.4
2018-Jul-17 21:30N 52°23' E 002°13'815.2
2018-Jul-17 20:59N 52°16' E 002°16'916.1
2018-Jul-17 20:28N 52°08' E 002°21'816.6
2018-Jul-17 20:01N 52°01' E 002°26'816.6
2018-Jul-17 19:30N 51°53' E 002°32'816.7
2018-Jul-17 19:00N 51°46' E 002°38'917.3
2018-Jul-17 18:30N 51°38' E 002°44'816.8
2018-Jul-17 18:00N 51°31' E 002°52'816.1
2018-Jul-17 17:30N 51°25' E 003°01'714.4
2018-Jul-17 17:00N 51°22' E 003°11'2 3.5
2018-Jul-17 16:29N 51°20' E 003°11'0 0.0
2018-Jul-17 15:58N 51°20' E 003°11'0 0.0
2018-Jul-17 15:28N 51°20' E 003°11'0 0.0
2018-Jul-17 14:58N 51°20' E 003°11'0 0.0
2018-Jul-17 14:28N 51°20' E 003°11'0 0.0
2018-Jul-17 13:58N 51°20' E 003°11'0 0.0
2018-Jul-17 13:30N 51°20' E 003°11'0 0.0
2018-Jul-17 12:57N 51°20' E 003°11'0 0.0
2018-Jul-17 12:24N 51°20' E 003°11'0 0.0
2018-Jul-17 12:00N 51°20' E 003°11'0 0.0
2018-Jul-17 11:24N 51°20' E 003°11'0 0.0
2018-Jul-17 10:59N 51°20' E 003°11'0 0.0
2018-Jul-17 10:29N 51°20' E 003°11'0 0.0
2018-Jul-17 09:56N 51°20' E 003°11'0 0.0
2018-Jul-17 09:26N 51°20' E 003°11'0 0.1
2018-Jul-17 06:34N 51°20' E 003°12'1 5.8
2018-Jul-17 06:26N 51°21' E 003°12'614.8
2018-Jul-17 06:01N 51°25' E 003°04'815.3
2018-Jul-17 05:30N 51°28' E 002°53'715.3
2018-Jul-17 05:01N 51°34' E 002°45'714.3
2018-Jul-17 04:30N 51°40' E 002°40'714.2
2018-Jul-17 04:01N 51°47' E 002°36'714.4
2018-Jul-17 03:31N 51°54' E 002°32'714.4
2018-Jul-17 03:00N 52°00' E 002°27'714.8
2018-Jul-17 02:30N 52°07' E 002°21'815.8
2018-Jul-17 02:00N 52°14' E 002°17'816.6
2018-Jul-17 01:30N 52°22' E 002°12'816.6
2018-Jul-17 01:01N 52°30' E 002°08'916.6
2018-Jul-17 00:30N 52°37' E 002°01'1717.3
2018-Jul-16 23:31N 52°50' E 001°42'917.7
2018-Jul-16 23:00N 52°55' E 001°30'4118.0
2018-Jul-16 20:45N 53°19' E 000°36'417.7
2018-Jul-16 20:31N 53°23' E 000°32'917.5
2018-Jul-16 20:00N 53°29' E 000°22'816.0
2018-Jul-16 19:30N 53°33' E 000°10'714.4
2018-Jul-16 19:00N 53°36' W 000°01'612.5
2018-Jul-16 18:30N 53°39' W 000°10'611.9
2018-Jul-16 18:00N 53°44' W 000°16'1 1.5
2018-Jul-16 17:30N 53°45' W 000°16'0 0.1
2018-Jul-16 16:59N 53°45' W 000°16'0 0.0
2018-Jul-16 16:30N 53°45' W 000°16'0 0.0
2018-Jul-16 16:00N 53°45' W 000°16'0 0.0
2018-Jul-16 15:30N 53°45' W 000°16'0 0.0
2018-Jul-16 15:00N 53°45' W 000°16'0 0.0
2018-Jul-16 14:30N 53°45' W 000°16'0 0.0
2018-Jul-16 14:00N 53°45' W 000°16'0 0.0
2018-Jul-16 13:30N 53°45' W 000°16'0 0.0
2018-Jul-16 13:00N 53°45' W 000°16'0 0.0
2018-Jul-16 12:30N 53°45' W 000°16'0 0.0
2018-Jul-16 12:00N 53°45' W 000°16'0 0.0
2018-Jul-16 11:30N 53°45' W 000°16'0 0.0
2018-Jul-16 11:00N 53°45' W 000°16'0 0.0
2018-Jul-16 10:31N 53°45' W 000°16'0 0.0
2018-Jul-16 10:01N 53°45' W 000°16'0 0.0
2018-Jul-16 09:30N 53°45' W 000°16'0 0.0
2018-Jul-16 09:00N 53°45' W 000°16'0 0.0
2018-Jul-16 08:30N 53°45' W 000°16'0 0.0
2018-Jul-16 08:00N 53°45' W 000°16'0 0.0
2018-Jul-16 07:30N 53°45' W 000°16'0 0.2
2018-Jul-16 07:00N 53°44' W 000°16'0 0.7
2018-Jul-16 06:30N 53°44' W 000°17'714.8
2018-Jul-16 06:00N 53°38' W 000°09'815.9
2018-Jul-16 05:30N 53°35' E 000°03'715.0
2018-Jul-16 05:01N 53°33' E 000°15'2012.8
2018-Jul-16 03:28N 53°24' E 000°45'714.6
2018-Jul-16 03:00N 53°21' E 000°55'814.9
2018-Jul-16 02:30N 53°16' E 001°04'815.6
2018-Jul-16 02:00N 53°10' E 001°12'815.7
2018-Jul-16 01:30N 53°04' E 001°21'815.8
2018-Jul-16 01:00N 52°58' E 001°30'815.7
2018-Jul-16 00:30N 52°52' E 001°39'714.5
2018-Jul-16 00:00N 52°47' E 001°47'713.5
2018-Jul-15 23:30N 52°43' E 001°55'713.6
2018-Jul-15 23:00N 52°38' E 002°04'713.9
2018-Jul-15 22:31N 52°31' E 002°07'713.5
2018-Jul-15 22:00N 52°25' E 002°11'612.7
2018-Jul-15 21:30N 52°19' E 002°14'713.2
2018-Jul-15 21:00N 52°13' E 002°18'713.7
2018-Jul-15 20:30N 52°07' E 002°23'714.3
2018-Jul-15 20:00N 52°00' E 002°27'714.8
2018-Jul-15 19:30N 51°53' E 002°32'815.0
2018-Jul-15 19:00N 51°46' E 002°36'815.3
2018-Jul-15 18:30N 51°40' E 002°43'815.2
2018-Jul-15 18:01N 51°34' E 002°50'815.1
2018-Jul-15 17:31N 51°28' E 002°57'714.2
2018-Jul-15 17:00N 51°24' E 003°07'4 8.6
2018-Jul-15 16:29N 51°20' E 003°11'0 0.1
2018-Jul-15 15:59N 51°20' E 003°11'0 0.0
2018-Jul-15 15:28N 51°20' E 003°11'0 0.0
2018-Jul-15 14:54N 51°20' E 003°11'0 0.0
2018-Jul-15 14:22N 51°20' E 003°11'0 0.0
2018-Jul-15 13:58N 51°20' E 003°11'0 0.0
2018-Jul-15 13:28N 51°20' E 003°11'0 0.0
2018-Jul-15 13:00N 51°20' E 003°11'0 0.0
2018-Jul-15 12:27N 51°20' E 003°11'0 0.0
2018-Jul-15 12:00N 51°20' E 003°11'0 0.0
2018-Jul-15 11:27N 51°20' E 003°11'0 0.0
2018-Jul-15 11:00N 51°20' E 003°11'0 0.0
2018-Jul-15 10:28N 51°20' E 003°11'0 0.0
2018-Jul-15 09:58N 51°20' E 003°11'0 0.0
2018-Jul-15 09:27N 51°20' E 003°11'0 0.0
2018-Jul-15 09:00N 51°20' E 003°11'0 0.0
2018-Jul-15 08:30N 51°20' E 003°11'0 0.0
2018-Jul-15 07:30N 51°20' E 003°11'0 0.6
2018-Jul-15 07:00N 51°21' E 003°12'510.7
2018-Jul-15 06:30N 51°24' E 003°05'714.1
2018-Jul-15 06:00N 51°28' E 002°56'714.7
2018-Jul-15 05:31N 51°33' E 002°47'714.4
2018-Jul-15 05:00N 51°38' E 002°40'714.1
2018-Jul-15 04:30N 51°45' E 002°38'714.0
2018-Jul-15 04:00N 51°52' E 002°34'713.8
2018-Jul-15 03:30N 51°58' E 002°30'714.2
2018-Jul-15 03:00N 52°05' E 002°26'714.0
2018-Jul-15 02:31N 52°11' E 002°21'714.1
2018-Jul-15 02:01N 52°18' E 002°16'714.3
2018-Jul-15 01:31N 52°24' E 002°11'714.4
2018-Jul-15 01:00N 52°31' E 002°06'714.5
2018-Jul-15 00:31N 52°37' E 002°01'815.1
2018-Jul-15 00:01N 52°43' E 001°54'815.7
2018-Jul-14 23:31N 52°49' E 001°45'815.7
2018-Jul-14 23:01N 52°54' E 001°35'816.0
2018-Jul-14 22:30N 52°58' E 001°23'816.2
2018-Jul-14 22:01N 53°01' E 001°11'816.5
2018-Jul-14 21:31N 53°06' E 000°59'2616.6
2018-Jul-14 19:56N 53°25' E 000°30'716.1
2018-Jul-14 19:30N 53°30' E 000°21'816.1
2018-Jul-14 19:00N 53°33' E 000°09'815.8
2018-Jul-14 18:30N 53°36' W 000°03'713.7
2018-Jul-14 18:00N 53°40' W 000°13'5 8.9
2018-Jul-14 17:28N 53°44' W 000°16'0 0.3
2018-Jul-14 17:00N 53°45' W 000°16'0 0.0
2018-Jul-14 16:30N 53°45' W 000°16'0 0.0
2018-Jul-14 16:00N 53°45' W 000°16'0 0.0
2018-Jul-14 15:30N 53°45' W 000°16'0 0.0
2018-Jul-14 14:59N 53°45' W 000°16'0 0.0
2018-Jul-14 13:59N 53°45' W 000°16'0 0.0
2018-Jul-14 13:29N 53°45' W 000°16'0 0.0
2018-Jul-14 12:59N 53°45' W 000°16'0 0.0
2018-Jul-14 12:28N 53°45' W 000°16'0 0.0
2018-Jul-14 11:58N 53°45' W 000°16'0 0.0
2018-Jul-14 11:28N 53°45' W 000°16'0 0.0
2018-Jul-14 10:58N 53°45' W 000°16'0 0.0
2018-Jul-14 10:27N 53°45' W 000°16'0 0.0
2018-Jul-14 10:00N 53°45' W 000°16'0 0.0
2018-Jul-14 09:30N 53°45' W 000°16'0 0.0
2018-Jul-14 09:00N 53°45' W 000°16'0 0.0
2018-Jul-14 08:30N 53°45' W 000°16'0 0.0
2018-Jul-14 07:59N 53°45' W 000°16'0 0.3
2018-Jul-14 07:29N 53°45' W 000°16'0 0.9
2018-Jul-14 07:00N 53°44' W 000°17'612.6
2018-Jul-14 06:30N 53°39' W 000°11'816.4
2018-Jul-14 06:01N 53°35' E 000°01'815.4
2018-Jul-14 05:30N 53°33' E 000°14'2113.5
2018-Jul-14 03:58N 53°24' E 000°46'614.0
2018-Jul-14 03:30N 53°22' E 000°56'714.2
2018-Jul-14 03:00N 53°17' E 001°05'714.6
2018-Jul-14 02:30N 53°12' E 001°13'815.2
2018-Jul-14 02:01N 53°06' E 001°20'815.7
2018-Jul-14 01:31N 52°59' E 001°28'917.5
2018-Jul-14 01:00N 52°53' E 001°37'917.4
2018-Jul-14 00:30N 52°47' E 001°48'816.7
2018-Jul-14 00:00N 52°41' E 001°58'815.8
2018-Jul-13 23:30N 52°35' E 002°06'714.5
2018-Jul-13 23:00N 52°28' E 002°10'714.4
2018-Jul-13 22:31N 52°21' E 002°15'714.2
2018-Jul-13 22:00N 52°15' E 002°18'713.9
2018-Jul-13 21:30N 52°08' E 002°22'913.5
2018-Jul-13 20:51N 51°60' E 002°27'513.9
2018-Jul-13 20:30N 51°56' E 002°32'813.2
2018-Jul-13 19:56N 51°50' E 002°38'613.3
2018-Jul-13 19:30N 51°44' E 002°39'713.2
2018-Jul-13 19:00N 51°38' E 002°44'713.6
2018-Jul-13 18:29N 51°32' E 002°51'713.9
2018-Jul-13 18:00N 51°27' E 002°57'714.7
2018-Jul-13 17:30N 51°24' E 003°07'4 8.6
2018-Jul-13 17:01N 51°20' E 003°11'0 0.2
2018-Jul-13 16:30N 51°20' E 003°11'0 0.0
2018-Jul-13 16:00N 51°20' E 003°11'0 0.0
2018-Jul-13 15:30N 51°20' E 003°11'0 0.0
2018-Jul-13 15:00N 51°20' E 003°11'0 0.0
2018-Jul-13 14:01N 51°20' E 003°11'0 0.0
2018-Jul-13 13:31N 51°20' E 003°11'0 0.0
2018-Jul-13 13:00N 51°20' E 003°11'0 0.0
2018-Jul-13 12:30N 51°20' E 003°11'0 0.0
2018-Jul-13 12:00N 51°20' E 003°11'0 0.0
2018-Jul-13 11:30N 51°20' E 003°11'0 0.0
2018-Jul-13 11:01N 51°20' E 003°11'0 0.0
2018-Jul-13 10:30N 51°20' E 003°11'0 0.0
2018-Jul-13 10:00N 51°20' E 003°11'0 0.0
2018-Jul-13 09:30N 51°20' E 003°11'0 0.0
2018-Jul-13 09:00N 51°20' E 003°11'0 0.0
2018-Jul-13 08:29N 51°20' E 003°11'0 0.0
2018-Jul-13 08:00N 51°20' E 003°11'0 0.0
2018-Jul-13 07:30N 51°20' E 003°11'0 0.0
2018-Jul-13 07:00N 51°20' E 003°11'3 5.1
2018-Jul-13 06:30N 51°23' E 003°10'715.0
2018-Jul-13 06:00N 51°26' E 002°59'816.5
2018-Jul-13 05:31N 51°31' E 002°49'816.4
2018-Jul-13 05:00N 51°37' E 002°40'816.8
2018-Jul-13 04:30N 51°45' E 002°37'816.6
2018-Jul-13 04:00N 51°53' E 002°32'816.3
2018-Jul-13 03:30N 52°01' E 002°27'815.8
2018-Jul-13 03:00N 52°08' E 002°23'815.5
2018-Jul-13 02:30N 52°15' E 002°19'815.4
2018-Jul-13 02:00N 52°23' E 002°14'915.4
2018-Jul-13 01:27N 52°30' E 002°08'715.0
2018-Jul-13 01:01N 52°36' E 002°02'714.6
2018-Jul-13 00:30N 52°42' E 001°55'714.7
2018-Jul-13 00:00N 52°48' E 001°48'815.6
2018-Jul-12 23:30N 52°54' E 001°39'815.6
2018-Jul-12 23:01N 52°59' E 001°30'816.3
2018-Jul-12 22:30N 53°05' E 001°21'816.4
2018-Jul-12 22:00N 53°12' E 001°12'816.5
2018-Jul-12 21:30N 53°18' E 001°03'3116.3
2018-Jul-12 19:35N 53°33' E 000°17'918.0
2018-Jul-12 19:05N 53°35' E 000°02'218.4
2018-Jul-12 18:57N 53°36' W 000°02'817.8
2018-Jul-12 18:30N 53°40' W 000°13'5 9.5
2018-Jul-12 18:00N 53°44' W 000°16'0 0.2
2018-Jul-12 17:28N 53°45' W 000°16'0 0.0
2018-Jul-12 16:58N 53°45' W 000°16'0 0.0
2018-Jul-12 16:28N 53°45' W 000°16'0 0.0
2018-Jul-12 15:58N 53°45' W 000°16'0 0.0
2018-Jul-12 15:30N 53°45' W 000°16'0 0.0
2018-Jul-12 15:00N 53°45' W 000°16'0 0.0
2018-Jul-12 14:30N 53°45' W 000°16'0 0.0
2018-Jul-12 14:00N 53°45' W 000°16'0 0.0
2018-Jul-12 13:30N 53°45' W 000°16'0 0.0
2018-Jul-12 12:59N 53°45' W 000°16'0 0.0
2018-Jul-12 12:29N 53°45' W 000°16'0 0.0
2018-Jul-12 11:59N 53°45' W 000°16'0 0.0
2018-Jul-12 11:29N 53°45' W 000°16'0 0.0
2018-Jul-12 10:58N 53°45' W 000°16'0 0.0
2018-Jul-12 10:28N 53°45' W 000°16'0 0.0
2018-Jul-12 09:58N 53°45' W 000°16'0 0.0
2018-Jul-12 09:28N 53°45' W 000°16'0 0.0
2018-Jul-12 08:58N 53°45' W 000°16'0 0.0
2018-Jul-12 08:27N 53°45' W 000°16'0 0.0
2018-Jul-12 08:00N 53°45' W 000°16'0 0.0
2018-Jul-12 07:30N 53°45' W 000°16'0 0.2
2018-Jul-12 07:00N 53°44' W 000°16'  
Track history (hours):
 
Tides and Currents Weather Stations Pressure Air Temp Water Temp Dewpoint Dewpoint Depression Visibility Wind Speed Wind Dir Waves Ship Positions

Pride Of Bruges

Operator: P&O Ferries

Last reported at 2018-Jul-22 07:00 UTC. Time now 2018-Jul-22 07:05 UTC.
Position N 53°44' W 000°17'.

Length 180 m; draft 5.6 m.

Type: Ship. MMSI: 244387000.

Date/timePositionNaut miles runAvg speedWind from/ knotsBaromVisibWave heightAir tempDewpointWater temp
2018-Jul-22 07:00N 53°44' W 000°17'4 8.5
2018-Jul-22 06:31N 53°41' W 000°13'610.8
2018-Jul-22 06:00N 53°37' W 000°06'713.1
2018-Jul-22 05:27N 53°34' E 000°05'3413.6
2018-Jul-22 02:58N 53°21' E 000°57'613.6
2018-Jul-22 02:30N 53°16' E 001°05'714.3
2018-Jul-22 02:00N 53°11' E 001°12'714.1
2018-Jul-22 01:30N 53°05' E 001°20'714.2
2018-Jul-22 01:00N 53°00' E 001°28'714.6
2018-Jul-22 00:30N 52°55' E 001°37'815.0
2018-Jul-22 00:00N 52°50' E 001°45'815.2
2018-Jul-21 23:30N 52°44' E 001°53'815.9
2018-Jul-21 23:00N 52°37' E 002°01'815.9
2018-Jul-21 22:30N 52°30' E 002°07'815.8
2018-Jul-21 22:00N 52°23' E 002°13'815.9
2018-Jul-21 21:30N 52°16' E 002°18'815.8
2018-Jul-21 21:00N 52°09' E 002°24'815.4
2018-Jul-21 20:30N 52°02' E 002°29'815.2
2018-Jul-21 20:00N 51°55' E 002°35'1414.4
2018-Jul-21 19:00N 51°42' E 002°42'714.2
2018-Jul-21 18:30N 51°35' E 002°47'714.2
2018-Jul-21 18:01N 51°30' E 002°54'713.5
2018-Jul-21 17:30N 51°25' E 003°02'612.3
2018-Jul-21 17:01N 51°22' E 003°11'2 4.2
2018-Jul-21 16:30N 51°20' E 003°11'0 0.0
2018-Jul-21 15:59N 51°20' E 003°11'0 0.0
2018-Jul-21 15:26N 51°20' E 003°11'0 0.0
2018-Jul-21 14:57N 51°20' E 003°11'0 0.0
2018-Jul-21 14:27N 51°20' E 003°11'0 0.0
2018-Jul-21 13:26N 51°20' E 003°11'0 0.0
2018-Jul-21 12:59N 51°20' E 003°11'0 0.0
2018-Jul-21 12:29N 51°20' E 003°11'0 0.0
2018-Jul-21 11:56N 51°20' E 003°11'0 0.0
2018-Jul-21 11:28N 51°20' E 003°11'0 0.0
2018-Jul-21 10:58N 51°20' E 003°11'0 0.0
2018-Jul-21 10:28N 51°20' E 003°11'0 0.0
2018-Jul-21 09:28N 51°20' E 003°11'0 0.0
2018-Jul-21 09:00N 51°20' E 003°11'0 0.0
2018-Jul-21 08:24N 51°20' E 003°11'0 0.0
2018-Jul-21 08:00N 51°20' E 003°11'0 0.0
2018-Jul-21 07:30N 51°20' E 003°11'0 0.4
2018-Jul-21 07:00N 51°20' E 003°11'510.8
2018-Jul-21 06:31N 51°24' E 003°05'815.0
2018-Jul-21 06:00N 51°27' E 002°54'713.4
2018-Jul-21 05:30N 51°32' E 002°47'713.7
2018-Jul-21 05:00N 51°37' E 002°40'714.2
2018-Jul-21 04:31N 51°44' E 002°38'714.4
2018-Jul-21 04:01N 51°51' E 002°34'714.6
2018-Jul-21 03:30N 51°58' E 002°29'815.3
2018-Jul-21 03:01N 52°05' E 002°24'816.4
2018-Jul-21 02:30N 52°12' E 002°19'816.6
2018-Jul-21 02:00N 52°20' E 002°14'817.1
2018-Jul-21 01:30N 52°28' E 002°09'917.3
2018-Jul-21 01:00N 52°36' E 002°02'817.0
2018-Jul-21 00:30N 52°43' E 001°55'816.6
2018-Jul-21 00:00N 52°48' E 001°44'816.2
2018-Jul-20 23:30N 52°53' E 001°34'816.1
2018-Jul-20 23:00N 52°58' E 001°23'816.2
2018-Jul-20 22:30N 53°00' E 001°10'915.9
2018-Jul-20 21:58N 53°06' E 000°59'3216.1
2018-Jul-20 20:01N 53°31' E 000°27'116.6
2018-Jul-20 19:58N 53°31' E 000°26'715.4
2018-Jul-20 19:29N 53°33' E 000°14'714.6
2018-Jul-20 19:00N 53°35' E 000°03'814.8
2018-Jul-20 18:30N 53°38' W 000°09'612.0
2018-Jul-20 18:01N 53°43' W 000°14'2 3.9
2018-Jul-20 17:29N 53°44' W 000°16'0 0.2
2018-Jul-20 17:00N 53°45' W 000°16'0 0.0
2018-Jul-20 16:30N 53°45' W 000°16'0 0.0
2018-Jul-20 15:59N 53°45' W 000°16'0 0.0
2018-Jul-20 15:29N 53°45' W 000°16'0 0.0
2018-Jul-20 14:59N 53°45' W 000°16'0 0.0
2018-Jul-20 14:29N 53°45' W 000°16'0 0.0
2018-Jul-20 13:59N 53°45' W 000°16'0 0.0
2018-Jul-20 13:28N 53°45' W 000°16'0 0.0
2018-Jul-20 12:58N 53°45' W 000°16'0 0.0
2018-Jul-20 12:28N 53°45' W 000°16'0 0.0
2018-Jul-20 11:58N 53°45' W 000°16'0 0.0
2018-Jul-20 11:30N 53°45' W 000°16'0 0.0
2018-Jul-20 11:00N 53°45' W 000°16'0 0.0
2018-Jul-20 10:30N 53°45' W 000°16'0 0.0
2018-Jul-20 10:00N 53°45' W 000°16'0 0.0
2018-Jul-20 09:30N 53°45' W 000°16'0 0.0
2018-Jul-20 08:59N 53°45' W 000°16'0 0.0
2018-Jul-20 08:29N 53°45' W 000°16'0 0.0
2018-Jul-20 07:59N 53°45' W 000°16'0 0.0
2018-Jul-20 07:30N 53°45' W 000°16'0 0.2
2018-Jul-20 07:00N 53°44' W 000°16'0 0.6
2018-Jul-20 06:30N 53°44' W 000°16'611.6
2018-Jul-20 06:01N 53°39' W 000°12'713.0
2018-Jul-20 05:30N 53°36' W 000°02'714.8
2018-Jul-20 05:00N 53°33' E 000°09'714.7
2018-Jul-20 04:30N 53°33' E 000°22'814.8
2018-Jul-20 03:59N 53°30' E 000°34'915.0
2018-Jul-20 03:25N 53°25' E 000°45'615.7
2018-Jul-20 03:00N 53°22' E 000°54'715.1
2018-Jul-20 02:31N 53°17' E 001°04'815.1
2018-Jul-20 02:00N 53°11' E 001°12'714.9
2018-Jul-20 01:30N 53°06' E 001°21'714.5
2018-Jul-20 01:01N 53°00' E 001°29'714.1
2018-Jul-20 00:31N 52°56' E 001°38'713.6
2018-Jul-20 00:00N 52°51' E 001°45'714.0
2018-Jul-19 23:30N 52°45' E 001°52'714.2
2018-Jul-19 23:00N 52°39' E 001°59'815.1
2018-Jul-19 22:30N 52°33' E 002°06'816.0
2018-Jul-19 22:01N 52°26' E 002°12'816.4
2018-Jul-19 21:31N 52°18' E 002°17'816.9
2018-Jul-19 21:01N 52°10' E 002°22'917.1
2018-Jul-19 20:31N 52°02' E 002°27'817.0
2018-Jul-19 20:01N 51°55' E 002°32'917.2
2018-Jul-19 19:30N 51°47' E 002°38'817.0
2018-Jul-19 19:00N 51°39' E 002°44'816.7
2018-Jul-19 18:31N 51°32' E 002°51'816.5
2018-Jul-19 18:01N 51°25' E 002°58'714.4
2018-Jul-19 17:30N 51°23' E 003°09'3 6.2
2018-Jul-19 17:00N 51°20' E 003°11'0 0.0
2018-Jul-19 16:27N 51°20' E 003°11'0 0.0
2018-Jul-19 15:59N 51°20' E 003°11'0 0.0
2018-Jul-19 15:29N 51°20' E 003°11'0 0.0
2018-Jul-19 14:59N 51°20' E 003°11'0 0.0
2018-Jul-19 13:56N 51°20' E 003°11'0 0.0
2018-Jul-19 13:29N 51°20' E 003°11'0 0.0
2018-Jul-19 12:58N 51°20' E 003°11'0 0.0
2018-Jul-19 12:28N 51°20' E 003°11'0 0.0
2018-Jul-19 11:58N 51°20' E 003°11'0 0.0
2018-Jul-19 11:25N 51°20' E 003°11'0 0.0
2018-Jul-19 11:00N 51°20' E 003°11'0 0.0
2018-Jul-19 10:27N 51°20' E 003°11'0 0.0
2018-Jul-19 10:00N 51°20' E 003°11'0 0.0
2018-Jul-19 09:24N 51°20' E 003°11'0 0.0
2018-Jul-19 09:00N 51°20' E 003°11'0 0.0
2018-Jul-19 08:28N 51°20' E 003°11'0 0.0
2018-Jul-19 07:59N 51°20' E 003°11'0 0.0
2018-Jul-19 07:29N 51°20' E 003°11'0 0.0
2018-Jul-19 06:56N 51°20' E 003°11'1 1.3
2018-Jul-19 06:30N 51°21' E 003°12'713.2
2018-Jul-19 06:00N 51°24' E 003°03'815.3
2018-Jul-19 05:31N 51°28' E 002°53'714.6
2018-Jul-19 05:00N 51°33' E 002°44'713.7
2018-Jul-19 04:31N 51°39' E 002°39'714.8
2018-Jul-19 04:01N 51°46' E 002°35'815.0
2018-Jul-19 03:30N 51°53' E 002°30'815.2
2018-Jul-19 03:00N 52°00' E 002°26'815.5
2018-Jul-19 02:30N 52°07' E 002°21'816.1
2018-Jul-19 02:01N 52°15' E 002°16'817.0
2018-Jul-19 01:31N 52°23' E 002°11'917.2
2018-Jul-19 01:01N 52°31' E 002°05'918.0
2018-Jul-19 00:30N 52°39' E 001°58'1019.1
2018-Jul-19 00:00N 52°46' E 001°49'1019.5
2018-Jul-18 23:30N 52°53' E 001°37'1019.4
2018-Jul-18 23:01N 52°59' E 001°24'918.9
2018-Jul-18 22:30N 53°02' E 001°09'918.0
2018-Jul-18 22:00N 53°07' E 000°57'918.2
2018-Jul-18 21:30N 53°13' E 000°46'918.0
2018-Jul-18 21:00N 53°20' E 000°35'917.9
2018-Jul-18 20:30N 53°27' E 000°26'1615.6
2018-Jul-18 19:27N 53°35' E 000°02'613.6
2018-Jul-18 19:00N 53°37' W 000°07'510.5
2018-Jul-18 18:30N 53°41' W 000°13'4 7.7
2018-Jul-18 18:00N 53°44' W 000°16'0 0.0
2018-Jul-18 17:31N 53°44' W 000°16'0 0.2
2018-Jul-18 17:00N 53°45' W 000°16'0 0.0
2018-Jul-18 16:30N 53°45' W 000°16'0 0.0
2018-Jul-18 16:00N 53°45' W 000°16'0 0.0
2018-Jul-18 15:29N 53°45' W 000°16'0 0.0
2018-Jul-18 14:59N 53°45' W 000°16'0 0.0
2018-Jul-18 14:29N 53°45' W 000°16'0 0.0
2018-Jul-18 13:29N 53°45' W 000°16'0 0.0
2018-Jul-18 12:58N 53°45' W 000°16'0 0.0
2018-Jul-18 12:30N 53°45' W 000°16'0 0.0
2018-Jul-18 11:58N 53°45' W 000°16'0 0.0
2018-Jul-18 11:28N 53°45' W 000°16'0 0.0
2018-Jul-18 10:30N 53°45' W 000°16'0 0.0
2018-Jul-18 10:00N 53°45' W 000°16'0 0.0
2018-Jul-18 09:30N 53°45' W 000°16'0 0.0
2018-Jul-18 09:00N 53°45' W 000°16'0 0.0
2018-Jul-18 08:29N 53°45' W 000°16'0 0.0
2018-Jul-18 07:59N 53°45' W 000°16'0 0.0
2018-Jul-18 07:29N 53°45' W 000°16'0 0.2
2018-Jul-18 06:59N 53°44' W 000°16'0 0.5
2018-Jul-18 06:30N 53°44' W 000°17'611.9
2018-Jul-18 06:00N 53°39' W 000°12'713.4
2018-Jul-18 05:30N 53°36' W 000°02'815.8
2018-Jul-18 05:00N 53°33' E 000°10'714.1
2018-Jul-18 04:30N 53°33' E 000°22'2314.1
2018-Jul-18 02:53N 53°21' E 000°55'614.8
2018-Jul-18 02:30N 53°18' E 001°03'815.4
2018-Jul-18 02:00N 53°13' E 001°12'815.4
2018-Jul-18 01:30N 53°07' E 001°21'714.6
2018-Jul-18 01:00N 53°02' E 001°29'1414.0
2018-Jul-18 00:01N 52°51' E 001°43'412.9
2018-Jul-17 23:42N 52°48' E 001°48'312.5
2018-Jul-17 23:29N 52°46' E 001°50'812.6
2018-Jul-17 22:49N 52°39' E 001°59'413.0
2018-Jul-17 22:28N 52°35' E 002°03'613.5
2018-Jul-17 22:00N 52°30' E 002°08'714.4
2018-Jul-17 21:30N 52°23' E 002°13'815.2
2018-Jul-17 20:59N 52°16' E 002°16'916.1
2018-Jul-17 20:28N 52°08' E 002°21'816.6
2018-Jul-17 20:01N 52°01' E 002°26'816.6
2018-Jul-17 19:30N 51°53' E 002°32'816.7
2018-Jul-17 19:00N 51°46' E 002°38'917.3
2018-Jul-17 18:30N 51°38' E 002°44'816.8
2018-Jul-17 18:00N 51°31' E 002°52'816.1
2018-Jul-17 17:30N 51°25' E 003°01'714.4
2018-Jul-17 17:00N 51°22' E 003°11'2 3.5
2018-Jul-17 16:29N 51°20' E 003°11'0 0.0
2018-Jul-17 15:58N 51°20' E 003°11'0 0.0
2018-Jul-17 15:28N 51°20' E 003°11'0 0.0
2018-Jul-17 14:58N 51°20' E 003°11'0 0.0
2018-Jul-17 14:28N 51°20' E 003°11'0 0.0
2018-Jul-17 13:58N 51°20' E 003°11'0 0.0
2018-Jul-17 13:30N 51°20' E 003°11'0 0.0
2018-Jul-17 12:57N 51°20' E 003°11'0 0.0
2018-Jul-17 12:24N 51°20' E 003°11'0 0.0
2018-Jul-17 12:00N 51°20' E 003°11'0 0.0
2018-Jul-17 11:24N 51°20' E 003°11'0 0.0
2018-Jul-17 10:59N 51°20' E 003°11'0 0.0
2018-Jul-17 10:29N 51°20' E 003°11'0 0.0
2018-Jul-17 09:56N 51°20' E 003°11'0 0.0
2018-Jul-17 09:26N 51°20' E 003°11'0 0.1
2018-Jul-17 06:34N 51°20' E 003°12'1 5.8
2018-Jul-17 06:26N 51°21' E 003°12'614.8
2018-Jul-17 06:01N 51°25' E 003°04'815.3
2018-Jul-17 05:30N 51°28' E 002°53'715.3
2018-Jul-17 05:01N 51°34' E 002°45'714.3
2018-Jul-17 04:30N 51°40' E 002°40'714.2
2018-Jul-17 04:01N 51°47' E 002°36'714.4
2018-Jul-17 03:31N 51°54' E 002°32'714.4
2018-Jul-17 03:00N 52°00' E 002°27'714.8
2018-Jul-17 02:30N 52°07' E 002°21'815.8
2018-Jul-17 02:00N 52°14' E 002°17'816.6
2018-Jul-17 01:30N 52°22' E 002°12'816.6
2018-Jul-17 01:01N 52°30' E 002°08'916.6
2018-Jul-17 00:30N 52°37' E 002°01'1717.3
2018-Jul-16 23:31N 52°50' E 001°42'917.7
2018-Jul-16 23:00N 52°55' E 001°30'4118.0
2018-Jul-16 20:45N 53°19' E 000°36'417.7
2018-Jul-16 20:31N 53°23' E 000°32'917.5
2018-Jul-16 20:00N 53°29' E 000°22'816.0
2018-Jul-16 19:30N 53°33' E 000°10'714.4
2018-Jul-16 19:00N 53°36' W 000°01'612.5
2018-Jul-16 18:30N 53°39' W 000°10'611.9
2018-Jul-16 18:00N 53°44' W 000°16'1 1.5
2018-Jul-16 17:30N 53°45' W 000°16'0 0.1
2018-Jul-16 16:59N 53°45' W 000°16'0 0.0
2018-Jul-16 16:30N 53°45' W 000°16'0 0.0
2018-Jul-16 16:00N 53°45' W 000°16'0 0.0
2018-Jul-16 15:30N 53°45' W 000°16'0 0.0
2018-Jul-16 15:00N 53°45' W 000°16'0 0.0
2018-Jul-16 14:30N 53°45' W 000°16'0 0.0
2018-Jul-16 14:00N 53°45' W 000°16'0 0.0
2018-Jul-16 13:30N 53°45' W 000°16'0 0.0
2018-Jul-16 13:00N 53°45' W 000°16'0 0.0
2018-Jul-16 12:30N 53°45' W 000°16'0 0.0
2018-Jul-16 12:00N 53°45' W 000°16'0 0.0
2018-Jul-16 11:30N 53°45' W 000°16'0 0.0
2018-Jul-16 11:00N 53°45' W 000°16'0 0.0
2018-Jul-16 10:31N 53°45' W 000°16'0 0.0
2018-Jul-16 10:01N 53°45' W 000°16'0 0.0
2018-Jul-16 09:30N 53°45' W 000°16'0 0.0
2018-Jul-16 09:00N 53°45' W 000°16'0 0.0
2018-Jul-16 08:30N 53°45' W 000°16'0 0.0
2018-Jul-16 08:00N 53°45' W 000°16'0 0.0
2018-Jul-16 07:30N 53°45' W 000°16'0 0.2
2018-Jul-16 07:00N 53°44' W 000°16'0 0.7
2018-Jul-16 06:30N 53°44' W 000°17'714.8
2018-Jul-16 06:00N 53°38' W 000°09'815.9
2018-Jul-16 05:30N 53°35' E 000°03'715.0
2018-Jul-16 05:01N 53°33' E 000°15'2012.8
2018-Jul-16 03:28N 53°24' E 000°45'714.6
2018-Jul-16 03:00N 53°21' E 000°55'814.9
2018-Jul-16 02:30N 53°16' E 001°04'815.6
2018-Jul-16 02:00N 53°10' E 001°12'815.7
2018-Jul-16 01:30N 53°04' E 001°21'815.8
2018-Jul-16 01:00N 52°58' E 001°30'815.7
2018-Jul-16 00:30N 52°52' E 001°39'714.5
2018-Jul-16 00:00N 52°47' E 001°47'713.5
2018-Jul-15 23:30N 52°43' E 001°55'713.6
2018-Jul-15 23:00N 52°38' E 002°04'713.9
2018-Jul-15 22:31N 52°31' E 002°07'713.5
2018-Jul-15 22:00N 52°25' E 002°11'612.7
2018-Jul-15 21:30N 52°19' E 002°14'713.2
2018-Jul-15 21:00N 52°13' E 002°18'713.7
2018-Jul-15 20:30N 52°07' E 002°23'714.3
2018-Jul-15 20:00N 52°00' E 002°27'714.8
2018-Jul-15 19:30N 51°53' E 002°32'815.0
2018-Jul-15 19:00N 51°46' E 002°36'815.3
2018-Jul-15 18:30N 51°40' E 002°43'815.2
2018-Jul-15 18:01N 51°34' E 002°50'815.1
2018-Jul-15 17:31N 51°28' E 002°57'714.2
2018-Jul-15 17:00N 51°24' E 003°07'4 8.6
2018-Jul-15 16:29N 51°20' E 003°11'0 0.1
2018-Jul-15 15:59N 51°20' E 003°11'0 0.0
2018-Jul-15 15:28N 51°20' E 003°11'0 0.0
2018-Jul-15 14:54N 51°20' E 003°11'0 0.0
2018-Jul-15 14:22N 51°20' E 003°11'0 0.0
2018-Jul-15 13:58N 51°20' E 003°11'0 0.0
2018-Jul-15 13:28N 51°20' E 003°11'0 0.0
2018-Jul-15 13:00N 51°20' E 003°11'0 0.0
2018-Jul-15 12:27N 51°20' E 003°11'0 0.0
2018-Jul-15 12:00N 51°20' E 003°11'0 0.0
2018-Jul-15 11:27N 51°20' E 003°11'0 0.0
2018-Jul-15 11:00N 51°20' E 003°11'0 0.0
2018-Jul-15 10:28N 51°20' E 003°11'0 0.0
2018-Jul-15 09:58N 51°20' E 003°11'0 0.0
2018-Jul-15 09:27N 51°20' E 003°11'0 0.0
2018-Jul-15 09:00N 51°20' E 003°11'0 0.0
2018-Jul-15 08:30N 51°20' E 003°11'0 0.0
2018-Jul-15 07:30N 51°20' E 003°11'0 0.6
2018-Jul-15 07:00N 51°21' E 003°12'510.7
2018-Jul-15 06:30N 51°24' E 003°05'714.1
2018-Jul-15 06:00N 51°28' E 002°56'714.7
2018-Jul-15 05:31N 51°33' E 002°47'714.4
2018-Jul-15 05:00N 51°38' E 002°40'714.1
2018-Jul-15 04:30N 51°45' E 002°38'714.0
2018-Jul-15 04:00N 51°52' E 002°34'713.8
2018-Jul-15 03:30N 51°58' E 002°30'714.2
2018-Jul-15 03:00N 52°05' E 002°26'714.0
2018-Jul-15 02:31N 52°11' E 002°21'714.1
2018-Jul-15 02:01N 52°18' E 002°16'714.3
2018-Jul-15 01:31N 52°24' E 002°11'714.4
2018-Jul-15 01:00N 52°31' E 002°06'714.5
2018-Jul-15 00:31N 52°37' E 002°01'815.1
2018-Jul-15 00:01N 52°43' E 001°54'815.7
2018-Jul-14 23:31N 52°49' E 001°45'815.7
2018-Jul-14 23:01N 52°54' E 001°35'816.0
2018-Jul-14 22:30N 52°58' E 001°23'816.2
2018-Jul-14 22:01N 53°01' E 001°11'816.5
2018-Jul-14 21:31N 53°06' E 000°59'2616.6
2018-Jul-14 19:56N 53°25' E 000°30'716.1
2018-Jul-14 19:30N 53°30' E 000°21'816.1
2018-Jul-14 19:00N 53°33' E 000°09'815.8
2018-Jul-14 18:30N 53°36' W 000°03'713.7
2018-Jul-14 18:00N 53°40' W 000°13'5 8.9
2018-Jul-14 17:28N 53°44' W 000°16'0 0.3
2018-Jul-14 17:00N 53°45' W 000°16'0 0.0
2018-Jul-14 16:30N 53°45' W 000°16'0 0.0
2018-Jul-14 16:00N 53°45' W 000°16'0 0.0
2018-Jul-14 15:30N 53°45' W 000°16'0 0.0
2018-Jul-14 14:59N 53°45' W 000°16'0 0.0
2018-Jul-14 13:59N 53°45' W 000°16'0 0.0
2018-Jul-14 13:29N 53°45' W 000°16'0 0.0
2018-Jul-14 12:59N 53°45' W 000°16'0 0.0
2018-Jul-14 12:28N 53°45' W 000°16'0 0.0
2018-Jul-14 11:58N 53°45' W 000°16'0 0.0
2018-Jul-14 11:28N 53°45' W 000°16'0 0.0
2018-Jul-14 10:58N 53°45' W 000°16'0 0.0
2018-Jul-14 10:27N 53°45' W 000°16'0 0.0
2018-Jul-14 10:00N 53°45' W 000°16'0 0.0
2018-Jul-14 09:30N 53°45' W 000°16'0 0.0
2018-Jul-14 09:00N 53°45' W 000°16'0 0.0
2018-Jul-14 08:30N 53°45' W 000°16'0 0.0
2018-Jul-14 07:59N 53°45' W 000°16'0 0.3
2018-Jul-14 07:29N 53°45' W 000°16'0 0.9
2018-Jul-14 07:00N 53°44' W 000°17'612.6
2018-Jul-14 06:30N 53°39' W 000°11'816.4
2018-Jul-14 06:01N 53°35' E 000°01'815.4
2018-Jul-14 05:30N 53°33' E 000°14'2113.5
2018-Jul-14 03:58N 53°24' E 000°46'614.0
2018-Jul-14 03:30N 53°22' E 000°56'714.2
2018-Jul-14 03:00N 53°17' E 001°05'714.6
2018-Jul-14 02:30N 53°12' E 001°13'815.2
2018-Jul-14 02:01N 53°06' E 001°20'815.7
2018-Jul-14 01:31N 52°59' E 001°28'917.5
2018-Jul-14 01:00N 52°53' E 001°37'917.4
2018-Jul-14 00:30N 52°47' E 001°48'816.7
2018-Jul-14 00:00N 52°41' E 001°58'815.8
2018-Jul-13 23:30N 52°35' E 002°06'714.5
2018-Jul-13 23:00N 52°28' E 002°10'714.4
2018-Jul-13 22:31N 52°21' E 002°15'714.2
2018-Jul-13 22:00N 52°15' E 002°18'713.9
2018-Jul-13 21:30N 52°08' E 002°22'913.5
2018-Jul-13 20:51N 51°60' E 002°27'513.9
2018-Jul-13 20:30N 51°56' E 002°32'813.2
2018-Jul-13 19:56N 51°50' E 002°38'613.3
2018-Jul-13 19:30N 51°44' E 002°39'713.2
2018-Jul-13 19:00N 51°38' E 002°44'713.6
2018-Jul-13 18:29N 51°32' E 002°51'713.9
2018-Jul-13 18:00N 51°27' E 002°57'714.7
2018-Jul-13 17:30N 51°24' E 003°07'4 8.6
2018-Jul-13 17:01N 51°20' E 003°11'0 0.2
2018-Jul-13 16:30N 51°20' E 003°11'0 0.0
2018-Jul-13 16:00N 51°20' E 003°11'0 0.0
2018-Jul-13 15:30N 51°20' E 003°11'0 0.0
2018-Jul-13 15:00N 51°20' E 003°11'0 0.0
2018-Jul-13 14:01N 51°20' E 003°11'0 0.0
2018-Jul-13 13:31N 51°20' E 003°11'0 0.0
2018-Jul-13 13:00N 51°20' E 003°11'0 0.0
2018-Jul-13 12:30N 51°20' E 003°11'0 0.0
2018-Jul-13 12:00N 51°20' E 003°11'0 0.0
2018-Jul-13 11:30N 51°20' E 003°11'0 0.0
2018-Jul-13 11:01N 51°20' E 003°11'0 0.0
2018-Jul-13 10:30N 51°20' E 003°11'0 0.0
2018-Jul-13 10:00N 51°20' E 003°11'0 0.0
2018-Jul-13 09:30N 51°20' E 003°11'0 0.0
2018-Jul-13 09:00N 51°20' E 003°11'0 0.0
2018-Jul-13 08:29N 51°20' E 003°11'0 0.0
2018-Jul-13 08:00N 51°20' E 003°11'0 0.0
2018-Jul-13 07:30N 51°20' E 003°11'0 0.0
2018-Jul-13 07:00N 51°20' E 003°11'3 5.1
2018-Jul-13 06:30N 51°23' E 003°10'715.0
2018-Jul-13 06:00N 51°26' E 002°59'816.5
2018-Jul-13 05:31N 51°31' E 002°49'816.4
2018-Jul-13 05:00N 51°37' E 002°40'816.8
2018-Jul-13 04:30N 51°45' E 002°37'816.6
2018-Jul-13 04:00N 51°53' E 002°32'816.3
2018-Jul-13 03:30N 52°01' E 002°27'815.8
2018-Jul-13 03:00N 52°08' E 002°23'815.5
2018-Jul-13 02:30N 52°15' E 002°19'815.4
2018-Jul-13 02:00N 52°23' E 002°14'915.4
2018-Jul-13 01:27N 52°30' E 002°08'715.0
2018-Jul-13 01:01N 52°36' E 002°02'714.6
2018-Jul-13 00:30N 52°42' E 001°55'714.7
2018-Jul-13 00:00N 52°48' E 001°48'815.6
2018-Jul-12 23:30N 52°54' E 001°39'815.6
2018-Jul-12 23:01N 52°59' E 001°30'816.3
2018-Jul-12 22:30N 53°05' E 001°21'816.4
2018-Jul-12 22:00N 53°12' E 001°12'816.5
2018-Jul-12 21:30N 53°18' E 001°03'3116.3
2018-Jul-12 19:35N 53°33' E 000°17'918.0
2018-Jul-12 19:05N 53°35' E 000°02'218.4
2018-Jul-12 18:57N 53°36' W 000°02'817.8
2018-Jul-12 18:30N 53°40' W 000°13'5 9.5
2018-Jul-12 18:00N 53°44' W 000°16'0 0.2
2018-Jul-12 17:28N 53°45' W 000°16'0 0.0
2018-Jul-12 16:58N 53°45' W 000°16'0 0.0
2018-Jul-12 16:28N 53°45' W 000°16'0 0.0
2018-Jul-12 15:58N 53°45' W 000°16'0 0.0
2018-Jul-12 15:30N 53°45' W 000°16'0 0.0
2018-Jul-12 15:00N 53°45' W 000°16'0 0.0
2018-Jul-12 14:30N 53°45' W 000°16'0 0.0
2018-Jul-12 14:00N 53°45' W 000°16'0 0.0
2018-Jul-12 13:30N 53°45' W 000°16'0 0.0
2018-Jul-12 12:59N 53°45' W 000°16'0 0.0
2018-Jul-12 12:29N 53°45' W 000°16'0 0.0
2018-Jul-12 11:59N 53°45' W 000°16'0 0.0
2018-Jul-12 11:29N 53°45' W 000°16'0 0.0
2018-Jul-12 10:58N 53°45' W 000°16'0 0.0
2018-Jul-12 10:28N 53°45' W 000°16'0 0.0
2018-Jul-12 09:58N 53°45' W 000°16'0 0.0
2018-Jul-12 09:28N 53°45' W 000°16'0 0.0
2018-Jul-12 08:58N 53°45' W 000°16'0 0.0
2018-Jul-12 08:27N 53°45' W 000°16'0 0.0
2018-Jul-12 08:00N 53°45' W 000°16'0 0.0
2018-Jul-12 07:30N 53°45' W 000°16'0 0.2
2018-Jul-12 07:00N 53°44' W 000°16'  

Dump ship's entire track history